Time;durP1;ratioP1;P1;durP2;ratioP2;P2;SDS_P1;SDS_P2;PMS_P1;PMS_P2;Temp;Humidity;BMP_temperature;BMP_pressure;BME280_temperature;BME280_humidity;BME280_pressure;Samples;Min_cycle;Max_cycle;Signal;HPM_P1;HPM_P2
2022/08/06 00:02:07;;;;;;;2.45;1.00;;;23.30;78.30;;;;;;5095888;28;19904;-75
2022/08/06 00:04:32;;;;;;;;;;;23.30;78.20;;;;;;5096698;28;20024;-75
2022/08/06 00:06:58;;;;;;;2.00;0.85;;;23.30;78.00;;;;;;5094777;28;20249;-76
2022/08/06 00:09:24;;;;;;;1.60;1.00;;;23.40;78.00;;;;;;5096028;28;20039;-76
2022/08/06 00:11:50;;;;;;;;;;;23.40;77.80;;;;;;5095242;28;20067;-75
2022/08/06 00:14:15;;;;;;;1.63;0.85;;;23.20;78.10;;;;;;5094936;28;19915;-75
2022/08/06 00:16:41;;;;;;;1.25;0.80;;;23.10;78.60;;;;;;5095104;28;20020;-75
2022/08/06 00:19:06;;;;;;;36.80;7.25;;;23.10;78.40;;;;;;5094733;28;20027;-76
2022/08/06 00:21:32;;;;;;;;;;;23.10;78.70;;;;;;5095330;28;20020;-75
2022/08/06 00:23:58;;;;;;;2.78;0.90;;;22.90;78.50;;;;;;5096043;28;19904;-76
2022/08/06 00:26:24;;;;;;;;;;;22.90;78.90;;;;;;5102327;28;20020;-75
2022/08/06 00:28:50;;;;;;;1.70;1.13;;;22.90;78.80;;;;;;5111833;28;19904;-75
2022/08/06 00:31:15;;;;;;;2.35;1.13;;;23.00;78.60;;;;;;5094910;28;20387;-76
2022/08/06 00:33:41;;;;;;;2.50;1.30;;;22.80;78.70;;;;;;5095804;28;20039;-75
2022/08/06 00:36:07;;;;;;;2.85;1.00;;;22.90;78.70;;;;;;5094494;28;20017;-75
2022/08/06 00:38:33;;;;;;;;;;;22.90;78.90;;;;;;5096973;28;20385;-75
2022/08/06 00:40:59;;;;;;;2.33;1.00;;;23.00;78.60;;;;;;5103783;28;19915;-75
2022/08/06 00:43:25;;;;;;;;;;;23.00;78.40;;;;;;5101156;28;20118;-75
2022/08/06 00:45:51;;;;;;;4.47;1.08;;;23.00;78.20;;;;;;5093799;28;19904;-75
2022/08/06 00:48:16;;;;;;;2.97;0.85;;;22.90;78.50;;;;;;5093826;28;20069;-75
2022/08/06 00:50:42;;;;;;;1.42;1.05;;;23.00;78.20;;;;;;5093701;28;20032;-74
2022/08/06 00:53:07;;;;;;;;;;;23.00;78.50;;;;;;5094011;28;20484;-75
2022/08/06 00:55:34;;;;;;;3.42;1.10;;;23.10;78.40;;;;;;5095120;28;20006;-75
2022/08/06 00:57:59;;;;;;;3.65;1.10;;;22.90;78.50;;;;;;5094308;28;20064;-75
2022/08/06 01:00:25;;;;;;;1.55;0.90;;;22.90;78.60;;;;;;5093632;28;20058;-75
2022/08/06 01:02:51;;;;;;;5.07;1.58;;;22.90;78.70;;;;;;5095071;28;20036;-75
2022/08/06 01:05:17;;;;;;;2.78;1.33;;;22.70;79.00;;;;;;5095075;28;20035;-75
2022/08/06 01:07:43;;;;;;;;;;;22.60;78.90;;;;;;5093853;28;20392;-75
2022/08/06 01:10:08;;;;;;;2.05;1.15;;;22.50;79.60;;;;;;5093835;28;19912;-75
2022/08/06 01:12:34;;;;;;;2.05;1.02;;;22.40;79.60;;;;;;5093682;28;20110;-75
2022/08/06 01:15:00;;;;;;;1.98;1.10;;;22.40;79.70;;;;;;5094788;28;20016;-75
2022/08/06 01:17:37;;;;;;;2.95;0.90;;;22.40;79.30;;;;;;5094700;28;20028;-75
2022/08/06 01:20:34;;;;;;;3.47;1.42;;;22.50;79.90;;;;;;5093650;28;20025;-75
2022/08/06 01:23:21;;;;;;;2.17;1.00;;;22.50;79.10;;;;;;5093165;28;20040;-75
2022/08/06 01:26:25;;;;;;;4.70;1.23;;;22.50;78.80;;;;;;5093026;28;20069;-75
2022/08/06 01:29:16;;;;;;;2.13;0.90;;;22.40;78.60;;;;;;5093357;28;20119;-75
2022/08/06 01:32:14;;;;;;;2.35;1.13;;;22.40;78.30;;;;;;5094441;28;20028;-76
2022/08/06 01:34:50;;;;;;;1.17;0.88;;;22.40;78.40;;;;;;5093492;28;20043;-75
2022/08/06 01:37:20;;;;;;;;;;;22.40;78.40;;;;;;5094185;28;20476;-75
2022/08/06 01:39:52;;;;;;;4.90;0.90;;;22.30;78.30;;;;;;5092544;28;19904;-75
2022/08/06 01:42:20;;;;;;;4.38;1.17;;;22.30;78.50;;;;;;5093266;28;20020;-75
2022/08/06 01:44:48;;;;;;;3.40;1.35;;;22.30;78.60;;;;;;5093627;28;20035;-75
2022/08/06 01:47:18;;;;;;;3.90;0.90;;;22.30;78.50;;;;;;5094059;28;20447;-75
2022/08/06 01:49:47;;;;;;;2.13;0.98;;;22.30;78.90;;;;;;5092886;28;20028;-74
2022/08/06 01:52:14;;;;;;;1.20;0.88;;;22.10;79.30;;;;;;5093835;28;20103;-75
2022/08/06 01:54:45;;;;;;;1.67;0.90;;;22.20;79.40;;;;;;5092402;28;20024;-75
2022/08/06 01:57:13;;;;;;;2.42;1.10;;;22.00;79.70;;;;;;5097907;28;20028;-74
2022/08/06 01:59:44;;;;;;;1.98;1.00;;;22.00;79.80;;;;;;5099218;28;20024;-75
2022/08/06 02:02:16;;;;;;;1.80;1.00;;;22.00;79.90;;;;;;5093759;28;20500;-74
2022/08/06 02:04:44;;;;;;;3.03;1.13;;;21.90;80.50;;;;;;5098237;28;20039;-75
2022/08/06 02:07:13;;;;;;;6.72;1.55;;;21.70;81.10;;;;;;5098721;28;20093;-75
2022/08/06 02:09:41;;;;;;;4.30;1.27;;;21.60;81.30;;;;;;5097732;28;20081;-75
2022/08/06 02:12:11;;;;;;;3.55;1.38;;;21.70;81.50;;;;;;5093782;28;20444;-75
2022/08/06 02:14:52;;;;;;;2.50;1.23;;;21.70;81.70;;;;;;5093115;28;20024;-75
2022/08/06 02:17:23;;;;;;;4.28;1.17;;;21.70;82.40;;;;;;5094121;28;20022;-75
2022/08/06 02:19:51;;;;;;;2.08;1.00;;;21.80;81.70;;;;;;5093687;28;20020;-75
2022/08/06 02:22:21;;;;;;;3.15;1.10;;;21.80;81.90;;;;;;5092564;28;20025;-75
2022/08/06 02:24:47;;;;;;;4.03;1.10;;;21.60;82.40;;;;;;5094279;28;20360;-75
2022/08/06 02:27:17;;;;;;;3.42;1.25;;;21.40;83.00;;;;;;5094741;28;20024;-74
2022/08/06 02:29:45;;;;;;;2.60;1.20;;;21.10;83.90;;;;;;5094748;28;20029;-74
2022/08/06 02:32:13;;;;;;;3.08;1.15;;;21.20;84.50;;;;;;5094917;28;20024;-75
2022/08/06 02:34:38;;;;;;;2.53;1.00;;;21.20;84.60;;;;;;5091899;28;20047;-75
2022/08/06 02:37:12;;;;;;;3.15;1.60;;;21.20;84.60;;;;;;5093439;28;20500;-75
2022/08/06 02:39:46;;;;;;;3.40;1.15;;;21.20;84.60;;;;;;5093668;28;20025;-75
2022/08/06 02:42:29;;;;;;;1.40;1.20;;;21.30;84.60;;;;;;5092060;28;20081;-75
2022/08/06 02:45:03;;;;;;;2.90;1.15;;;21.20;84.90;;;;;;5091847;28;20548;-75
2022/08/06 02:47:38;;;;;;;2.90;1.00;;;21.20;85.10;;;;;;5091835;28;20482;-75
2022/08/06 02:50:06;;;;;;;2.38;1.10;;;21.20;85.30;;;;;;5091838;28;20028;-75
2022/08/06 02:52:42;;;;;;;2.95;1.00;;;21.20;85.70;;;;;;5094092;28;20023;-75
2022/08/06 02:55:16;;;;;;;2.00;1.10;;;21.20;85.70;;;;;;5097195;28;20028;-74
2022/08/06 02:58:01;;;;;;;2.88;1.40;;;21.10;86.00;;;;;;5095694;28;20387;-75
2022/08/06 03:00:29;;;;;;;3.55;1.42;;;21.10;86.00;;;;;;5097096;28;20433;-74
2022/08/06 03:02:59;;;;;;;1.83;1.10;;;21.10;86.30;;;;;;5095681;28;20130;-75
2022/08/06 03:05:27;;;;;;;3.45;1.48;;;21.10;86.30;;;;;;5096986;28;20085;-75
2022/08/06 03:07:55;;;;;;;3.40;1.20;;;21.10;86.70;;;;;;5095532;28;20032;-75
2022/08/06 03:10:24;;;;;;;2.95;1.25;;;21.10;87.00;;;;;;5095515;28;20460;-75
2022/08/06 03:12:52;;;;;;;5.90;1.20;;;21.00;87.30;;;;;;5097133;28;20383;-75
2022/08/06 03:15:19;;;;;;;2.33;1.23;;;20.90;88.10;;;;;;5095548;28;20024;-75
2022/08/06 03:17:45;;;;;;;3.00;1.25;;;20.80;88.80;;;;;;5096720;28;20028;-75
2022/08/06 03:20:14;;;;;;;3.47;1.45;;;21.00;89.20;;;;;;5095487;28;20056;-75
2022/08/06 03:22:40;;;;;;;4.22;1.45;;;21.10;89.50;;;;;;5095238;28;20084;-75
2022/08/06 03:25:08;;;;;;;2.33;1.50;;;21.00;90.00;;;;;;5096721;28;20028;-75
2022/08/06 03:27:35;;;;;;;5.18;1.67;;;20.90;90.40;;;;;;5095670;28;20034;-75
2022/08/06 03:30:01;;;;;;;4.55;1.75;;;20.80;90.90;;;;;;5100571;28;20427;-74
2022/08/06 03:32:27;;;;;;;5.53;1.38;;;20.80;91.20;;;;;;5100639;28;20077;-75
2022/08/06 03:34:53;;;;;;;2.95;1.40;;;20.80;91.50;;;;;;5104097;28;20020;-74
2022/08/06 03:37:21;;;;;;;3.35;1.48;;;20.80;91.60;;;;;;5101689;28;20222;-74
2022/08/06 03:39:48;;;;;;;2.70;1.60;;;20.70;91.90;;;;;;5097761;28;20032;-75
2022/08/06 03:42:14;;;;;;;2.22;1.40;;;20.70;92.20;;;;;;5109396;28;20005;-74
2022/08/06 03:44:40;;;;;;;5.25;1.67;;;20.60;92.20;;;;;;5117054;28;20016;-74
2022/08/06 03:47:10;;;;;;;3.85;1.33;;;20.50;92.60;;;;;;5117456;28;20020;-74
2022/08/06 03:50:07;;;;;;;3.25;1.90;;;20.40;92.80;;;;;;5116786;28;20075;-74
2022/08/06 03:52:40;;;;;;;3.00;1.60;;;20.40;92.90;;;;;;5088511;28;20067;-75
2022/08/06 03:55:08;;;;;;;5.43;1.42;;;20.30;93.10;;;;;;5101571;28;20028;-74
2022/08/06 03:57:43;;;;;;;2.78;1.58;;;20.20;93.10;;;;;;5094637;28;20081;-75
2022/08/06 04:00:12;;;;;;;3.40;1.27;;;20.10;93.80;;;;;;5095038;28;20024;-75
2022/08/06 04:02:43;;;;;;;3.42;1.42;;;20.00;93.80;;;;;;5094907;28;20039;-75
2022/08/06 04:05:11;;;;;;;3.97;1.92;;;19.90;94.10;;;;;;5097775;28;20096;-74
2022/08/06 04:07:38;;;;;;;2.45;1.35;;;19.90;94.30;;;;;;5108623;28;20028;-75
2022/08/06 04:10:04;;;;;;;3.15;1.50;;;19.80;94.40;;;;;;5105582;28;20134;-75
2022/08/06 04:12:30;;;;;;;;;;;19.90;94.40;;;;;;5098977;28;20106;-75
2022/08/06 04:14:56;;;;;;;2.45;1.45;;;19.80;94.50;;;;;;5098082;28;19931;-75
2022/08/06 04:17:22;;;;;;;2.75;1.95;;;19.90;94.30;;;;;;5096483;28;20051;-75
2022/08/06 04:19:50;;;;;;;3.60;1.60;;;19.90;94.30;;;;;;5096305;28;20066;-75
2022/08/06 04:22:16;;;;;;;4.55;1.40;;;19.90;94.20;;;;;;5096277;28;20079;-75
2022/08/06 04:24:42;;;;;;;3.17;1.73;;;19.90;94.30;;;;;;5095807;28;20059;-75
2022/08/06 04:27:09;;;;;;;3.58;1.70;;;19.90;94.10;;;;;;5094391;28;20143;-75
2022/08/06 04:29:37;;;;;;;2.08;1.30;;;19.80;94.10;;;;;;5095404;28;20059;-75
2022/08/06 04:32:05;;;;;;;2.67;1.40;;;19.70;94.40;;;;;;5094181;28;20024;-75
2022/08/06 04:34:33;;;;;;;4.35;1.50;;;19.50;94.80;;;;;;5094095;28;20111;-75
2022/08/06 04:37:00;;;;;;;4.60;1.63;;;19.50;94.80;;;;;;5093860;28;20484;-75
2022/08/06 04:39:27;;;;;;;3.92;1.65;;;19.40;95.20;;;;;;5095424;28;20094;-75
2022/08/06 04:41:53;;;;;;;4.75;1.42;;;19.40;95.10;;;;;;5095345;28;20494;-75
2022/08/06 04:44:20;;;;;;;1.83;1.40;;;19.40;95.00;;;;;;5094045;28;20020;-75
2022/08/06 04:46:49;;;;;;;2.92;1.30;;;19.40;94.80;;;;;;5093978;28;20028;-74
2022/08/06 04:49:16;;;;;;;3.75;1.67;;;19.30;95.20;;;;;;5093354;28;20032;-75
2022/08/06 04:51:46;;;;;;;2.28;1.40;;;19.30;95.00;;;;;;5095260;28;20442;-75
2022/08/06 04:54:13;;;;;;;3.00;1.33;;;19.10;95.50;;;;;;5093812;28;20024;-75
2022/08/06 04:56:40;;;;;;;2.78;1.45;;;19.00;95.60;;;;;;5093828;28;20027;-75
2022/08/06 04:59:06;;;;;;;4.65;1.25;;;19.10;95.40;;;;;;5094625;28;20027;-76
2022/08/06 05:01:31;;;;;;;3.30;1.60;;;19.20;95.40;;;;;;5093670;28;20384;-75
2022/08/06 05:03:57;;;;;;;3.97;1.67;;;19.30;95.40;;;;;;5096601;28;20044;-75
2022/08/06 05:06:30;;;;;;;4.20;1.45;;;19.20;95.30;;;;;;5095502;28;20028;-69
2022/08/06 05:09:03;;;;;;;3.70;1.30;;;19.30;95.30;;;;;;5094608;28;20073;-69
2022/08/06 05:11:35;;;;;;;3.65;1.20;;;19.30;95.30;;;;;;5093593;28;20058;-68
2022/08/06 05:14:09;;;;;;;3.90;1.23;;;19.50;95.30;;;;;;5094566;28;20530;-66
2022/08/06 05:16:44;;;;;;;2.72;1.60;;;19.30;95.40;;;;;;5093785;28;20077;-66
2022/08/06 05:19:16;;;;;;;5.25;1.60;;;19.10;96.00;;;;;;5094304;28;20031;-65
2022/08/06 05:21:45;;;;;;;3.58;1.58;;;19.10;96.20;;;;;;5094308;28;20031;-65
2022/08/06 05:24:10;;;;;;;3.65;1.40;;;18.90;96.30;;;;;;5094449;28;20020;-73
2022/08/06 05:26:36;;;;;;;3.15;1.45;;;18.90;96.80;;;;;;5094343;28;20473;-70
2022/08/06 05:29:02;;;;;;;2.08;1.35;;;18.90;96.60;;;;;;5094237;28;20092;-71
2022/08/06 05:31:32;;;;;;;2.65;1.35;;;18.90;96.90;;;;;;5094530;28;20141;-70
2022/08/06 05:33:58;;;;;;;2.88;1.40;;;19.10;96.50;;;;;;5094392;28;20020;-70
2022/08/06 05:36:23;;;;;;;3.25;1.67;;;19.10;96.10;;;;;;5094335;28;20145;-70
2022/08/06 05:38:49;;;;;;;2.17;1.50;;;19.10;95.90;;;;;;5094240;28;20041;-70
2022/08/06 05:41:14;;;;;;;4.25;1.20;;;19.20;95.90;;;;;;5094714;28;20024;-74
2022/08/06 05:43:40;;;;;;;3.72;1.60;;;19.30;95.50;;;;;;5092123;28;20054;-74
2022/08/06 05:46:11;;;;;;;2.83;1.50;;;19.20;95.30;;;;;;5095694;28;20077;-74
2022/08/06 05:48:49;;;;;;;3.97;1.45;;;19.30;95.70;;;;;;5094642;28;20429;-74
2022/08/06 05:51:28;;;;;;;3.22;1.52;;;19.20;95.10;;;;;;5094874;28;20024;-74
2022/08/06 05:54:11;;;;;;;3.47;1.40;;;19.40;95.10;;;;;;5095160;28;20020;-74
2022/08/06 05:56:42;;;;;;;2.95;1.58;;;19.50;94.60;;;;;;5092734;28;20020;-74
2022/08/06 05:59:17;;;;;;;1.95;1.20;;;19.40;94.60;;;;;;5095053;28;20481;-75
2022/08/06 06:01:43;;;;;;;2.72;1.10;;;19.40;94.80;;;;;;5095816;28;20022;-73
2022/08/06 06:04:09;;;;;;;;;;;19.50;94.50;;;;;;5095287;28;20103;-73
2022/08/06 06:06:34;;;;;;;2.97;1.10;;;19.50;94.10;;;;;;5094912;28;19962;-74
2022/08/06 06:09:00;;;;;;;3.83;2.00;;;19.60;94.40;;;;;;5094317;28;20016;-74
2022/08/06 06:11:27;;;;;;;2.63;1.42;;;19.70;93.70;;;;;;5096662;28;20020;-75
2022/08/06 06:13:54;;;;;;;5.55;1.50;;;19.70;93.50;;;;;;5097819;28;20023;-74
2022/08/06 06:16:32;;;;;;;3.35;1.50;;;19.80;93.40;;;;;;5095312;28;20026;-74
2022/08/06 06:19:06;;;;;;;4.65;1.20;;;19.70;93.50;;;;;;5095695;28;20073;-72
2022/08/06 06:21:56;;;;;;;6.50;1.50;;;19.80;93.20;;;;;;5095975;28;20056;-74
2022/08/06 06:24:36;;;;;;;4.00;1.85;;;20.00;93.00;;;;;;5101406;28;20024;-73
2022/08/06 06:27:15;;;;;;;2.63;1.33;;;20.00;92.80;;;;;;5100773;28;20048;-76
2022/08/06 06:29:55;;;;;;;2.97;1.33;;;20.00;92.80;;;;;;5095591;28;20028;-75
2022/08/06 06:32:52;;;;;;;4.50;1.30;;;20.10;92.60;;;;;;5094919;28;20381;-75
2022/08/06 06:35:23;;;;;;;2.20;0.85;;;20.10;92.60;;;;;;5095573;28;20099;-75
2022/08/06 06:38:17;;;;;;;4.25;1.30;;;20.20;92.60;;;;;;5096036;28;20058;-76
2022/08/06 06:40:48;;;;;;;1.92;1.00;;;20.40;92.40;;;;;;5102298;28;20423;-75
2022/08/06 06:43:49;;;;;;;3.17;1.17;;;20.30;92.40;;;;;;5093414;28;20363;-75
2022/08/06 06:46:14;;;;;;;2.65;1.50;;;20.30;92.60;;;;;;5026340;28;20095;-74
2022/08/06 06:48:49;;;;;;;2.00;1.20;;;20.20;92.70;;;;;;5096969;28;20063;-76
2022/08/06 06:51:26;;;;;;;3.35;1.42;;;20.20;92.80;;;;;;5098382;28;20119;-76
2022/08/06 06:53:54;;;;;;;2.58;1.30;;;20.30;92.80;;;;;;5110719;28;20036;-75
2022/08/06 06:56:23;;;;;;;4.10;1.20;;;20.40;92.90;;;;;;5116074;28;20020;-74
2022/08/06 06:58:58;;;;;;;2.88;1.30;;;20.50;92.60;;;;;;5115819;28;20021;-75
2022/08/06 07:01:25;;;;;;;3.42;1.17;;;20.40;92.40;;;;;;5116327;28;20034;-74
2022/08/06 07:03:52;;;;;;;4.07;1.33;;;20.50;92.40;;;;;;5114513;28;20051;-75
2022/08/06 07:06:18;;;;;;;4.93;1.17;;;20.60;92.20;;;;;;5093894;28;20511;-76
2022/08/06 07:08:46;;;;;;;;;;;20.70;92.00;;;;;;5093724;28;20039;-76
2022/08/06 07:11:19;;;;;;;2.00;1.40;;;20.70;92.00;;;;;;5092104;28;19969;-76
2022/08/06 07:13:46;;;;;;;2.63;1.35;;;20.80;91.80;;;;;;5092015;28;20024;-76
2022/08/06 07:16:15;;;;;;;3.33;1.17;;;20.80;92.00;;;;;;5090319;28;20024;-76
2022/08/06 07:18:43;;;;;;;3.42;1.48;;;20.70;92.10;;;;;;5090893;28;20016;-76
2022/08/06 07:21:11;;;;;;;2.25;1.52;;;20.80;92.10;;;;;;5091736;28;20024;-76
2022/08/06 07:23:37;;;;;;;4.50;1.65;;;20.80;92.20;;;;;;5093079;28;20028;-75
2022/08/06 07:26:05;;;;;;;2.55;1.40;;;20.90;92.10;;;;;;5091628;28;20024;-74
2022/08/06 07:28:31;;;;;;;5.43;1.48;;;21.00;91.60;;;;;;5093609;28;20028;-75
2022/08/06 07:30:59;;;;;;;5.15;1.90;;;21.10;91.30;;;;;;5093853;28;20025;-76
2022/08/06 07:33:26;;;;;;;6.38;1.92;;;21.30;91.20;;;;;;5093705;28;20034;-76
2022/08/06 07:35:52;;;;;;;3.47;1.35;;;21.30;91.00;;;;;;5093718;28;20035;-76
2022/08/06 07:38:20;;;;;;;;;;;21.50;90.30;;;;;;5093352;28;20430;-75
2022/08/06 07:40:51;;;;;;;2.17;1.40;;;21.50;90.00;;;;;;5097058;28;20284;-75
2022/08/06 07:43:26;;;;;;;2.35;1.80;;;21.30;89.60;;;;;;5103207;28;20070;-76
2022/08/06 07:45:55;;;;;;;2.25;1.20;;;21.30;89.40;;;;;;5097356;28;20024;-74
2022/08/06 07:48:31;;;;;;;4.93;2.10;;;21.50;88.30;;;;;;5096710;28;20389;-74
2022/08/06 07:50:59;;;;;;;3.35;1.05;;;21.40;88.30;;;;;;5096575;28;20046;-75
2022/08/06 07:53:26;;;;;;;3.08;1.13;;;21.60;87.90;;;;;;5097347;28;20050;-74
2022/08/06 07:55:52;;;;;;;4.47;1.20;;;21.70;86.90;;;;;;5095117;28;20061;-73
2022/08/06 07:58:19;;;;;;;2.72;1.10;;;21.90;85.60;;;;;;5095663;28;20032;-73
2022/08/06 08:00:47;;;;;;;2.75;1.30;;;22.00;85.30;;;;;;5097328;28;20048;-73
2022/08/06 08:08:43;;;;;;;4.70;1.35;;;22.30;82.60;;;;;;5096127;28;20071;-73
2022/08/06 08:11:08;;;;;;;;;;;22.50;82.10;;;;;;5096377;28;20035;-73
2022/08/06 08:13:34;;;;;;;6.53;1.27;;;22.70;81.20;;;;;;5105806;28;19908;-74
2022/08/06 08:16:00;;;;;;;16.15;2.13;;;22.80;79.10;;;;;;5095915;28;20070;-73
2022/08/06 08:18:31;;;;;;;5.55;1.17;;;22.90;78.80;;;;;;5095798;28;20511;-73
2022/08/06 08:20:58;;;;;;;5.45;1.75;;;23.00;78.40;;;;;;5094469;28;20126;-77
2022/08/06 08:23:24;;;;;;;4.47;1.33;;;23.10;77.60;;;;;;5094984;28;20445;-75
2022/08/06 08:25:50;;;;;;;2.53;1.13;;;23.30;77.20;;;;;;5095201;28;20028;-75
2022/08/06 08:28:15;;;;;;;4.10;1.23;;;23.70;76.50;;;;;;5094752;28;20384;-75
2022/08/06 08:30:42;;;;;;;;;;;25.00;72.40;;;;;;5095616;28;20028;-75
2022/08/06 08:33:09;;;;;;;6.25;1.02;;;27.60;67.00;;;;;;5094281;28;19911;-76
2022/08/06 08:35:35;;;;;;;1.98;0.95;;;29.80;60.60;;;;;;5093413;28;20028;-76
2022/08/06 08:38:00;;;;;;;;;;;31.60;57.40;;;;;;5095232;28;20027;-76
2022/08/06 08:40:28;;;;;;;2.85;0.88;;;33.30;55.10;;;;;;5093701;28;20311;-75
2022/08/06 08:42:57;;;;;;;1.95;0.70;;;34.70;53.20;;;;;;5095036;28;20028;-76
2022/08/06 08:45:24;;;;;;;3.42;0.90;;;35.80;51.40;;;;;;5095078;28;20127;-74
2022/08/06 08:47:51;;;;;;;3.38;1.25;;;34.70;50.30;;;;;;5093786;28;20028;-75
2022/08/06 08:50:20;;;;;;;6.20;1.25;;;36.50;49.80;;;;;;5095047;28;20016;-75
2022/08/06 08:52:49;;;;;;;1.58;0.70;;;36.30;47.60;;;;;;5093909;28;20020;-75
2022/08/06 08:55:21;;;;;;;1.92;0.70;;;36.60;46.70;;;;;;5093654;28;20020;-72
2022/08/06 08:57:48;;;;;;;2.38;0.60;;;36.50;47.10;;;;;;5093274;28;20039;-73
2022/08/06 09:00:13;;;;;;;2.85;0.95;;;37.00;47.30;;;;;;5094153;28;20028;-72
2022/08/06 09:02:39;;;;;;;3.63;0.77;;;37.10;46.50;;;;;;5095722;28;20024;-69
2022/08/06 09:05:06;;;;;;;1.63;0.55;;;35.90;46.50;;;;;;5093573;28;20024;-76
2022/08/06 09:07:32;;;;;;;3.65;1.13;;;36.40;46.70;;;;;;5095442;28;20558;-75
2022/08/06 09:09:58;;;;;;;1.48;0.65;;;37.90;46.00;;;;;;5093900;28;20139;-74
2022/08/06 09:12:24;;;;;;;2.08;0.70;;;38.20;45.70;;;;;;5093106;28;20027;-75
2022/08/06 09:14:50;;;;;;;1.67;0.80;;;38.40;45.40;;;;;;5093461;28;20024;-74
2022/08/06 09:17:16;;;;;;;2.58;0.80;;;38.70;45.00;;;;;;5093838;28;20028;-75
2022/08/06 09:19:42;;;;;;;3.22;0.90;;;39.30;44.80;;;;;;5094500;28;20039;-75
2022/08/06 09:22:09;;;;;;;1.80;0.90;;;40.00;44.30;;;;;;5094655;28;20100;-75
2022/08/06 09:24:35;;;;;;;2.28;0.70;;;38.50;44.10;;;;;;5095249;28;20028;-75
2022/08/06 09:27:14;;;;;;;2.60;0.70;;;38.70;44.70;;;;;;5093103;28;20020;-74
2022/08/06 09:29:53;;;;;;;2.60;0.80;;;38.90;44.50;;;;;;5093501;28;20032;-75
2022/08/06 09:32:41;;;;;;;1.13;0.70;;;38.40;44.20;;;;;;5093037;28;20114;-74
2022/08/06 09:35:23;;;;;;;1.33;0.80;;;38.10;44.50;;;;;;5097103;28;20028;-74
2022/08/06 09:37:50;;;;;;;2.85;0.88;;;38.50;44.80;;;;;;5096112;28;20024;-74
2022/08/06 09:40:18;;;;;;;2.00;0.77;;;39.10;44.40;;;;;;5099688;28;20032;-74
2022/08/06 09:42:50;;;;;;;2.90;0.88;;;38.90;44.00;;;;;;5101467;28;20111;-73
2022/08/06 09:45:18;;;;;;;3.00;0.90;;;39.00;44.10;;;;;;5099271;28;20081;-74
2022/08/06 09:47:45;;;;;;;1.40;0.60;;;39.70;43.40;;;;;;5095666;28;20028;-73
2022/08/06 09:50:11;;;;;;;2.25;0.70;;;39.00;44.20;;;;;;5092915;28;20024;-74
2022/08/06 09:52:36;;;;;;;2.22;0.68;;;38.60;43.80;;;;;;5092873;28;20027;-74
2022/08/06 09:55:03;;;;;;;2.25;0.88;;;39.20;43.90;;;;;;5094665;28;20099;-74
2022/08/06 09:57:45;;;;;;;1.13;0.90;;;40.20;43.30;;;;;;5092628;28;20066;-75
2022/08/06 10:00:26;;;;;;;4.20;0.80;;;40.20;43.10;;;;;;5092704;28;20075;-74
2022/08/06 10:02:56;;;;;;;1.98;0.60;;;40.90;42.60;;;;;;5092057;28;20474;-75
2022/08/06 10:05:24;;;;;;;2.28;0.73;;;41.40;42.80;;;;;;5092730;28;20062;-75
2022/08/06 10:08:09;;;;;;;2.58;0.80;;;40.70;42.20;;;;;;5094168;28;20529;-74
2022/08/06 10:10:47;;;;;;;3.72;0.60;;;40.30;42.80;;;;;;5091969;28;20116;-75
2022/08/06 10:13:26;;;;;;;1.92;0.82;;;40.20;42.20;;;;;;5092573;28;20028;-75
2022/08/06 10:15:54;;;;;;;1.20;0.80;;;39.90;42.20;;;;;;5095783;28;20024;-74
2022/08/06 10:18:35;;;;;;;2.28;0.70;;;39.30;42.70;;;;;;5093668;28;20111;-75
2022/08/06 10:21:03;;;;;;;1.40;0.55;;;40.00;42.50;;;;;;5096564;28;20023;-74
2022/08/06 10:23:32;;;;;;;2.25;0.75;;;40.30;42.20;;;;;;5104184;28;20021;-75
2022/08/06 10:25:58;;;;;;;3.17;0.70;;;40.50;41.60;;;;;;5101140;28;20025;-74
2022/08/06 10:28:26;;;;;;;3.22;0.85;;;40.40;41.80;;;;;;5096679;28;20024;-75
2022/08/06 10:30:53;;;;;;;1.90;0.80;;;39.80;42.00;;;;;;5093531;28;20028;-75
2022/08/06 10:33:19;;;;;;;0.80;0.60;;;39.90;42.00;;;;;;5093485;28;20496;-74
2022/08/06 10:35:47;;;;;;;2.10;0.63;;;39.60;41.80;;;;;;5093525;28;20039;-74
2022/08/06 10:38:16;;;;;;;1.35;0.70;;;39.30;42.30;;;;;;5093418;28;20028;-73
2022/08/06 10:40:44;;;;;;;4.03;0.70;;;40.00;42.00;;;;;;5092184;28;20055;-73
2022/08/06 10:43:11;;;;;;;2.63;0.75;;;40.20;41.50;;;;;;5093763;28;20533;-74
2022/08/06 10:45:38;;;;;;;1.67;0.60;;;39.40;41.60;;;;;;5092172;28;20069;-74
2022/08/06 10:48:04;;;;;;;1.70;0.80;;;38.50;42.10;;;;;;5092191;28;20025;-75
2022/08/06 10:50:31;;;;;;;2.60;0.70;;;38.20;42.60;;;;;;5092314;28;20119;-74
2022/08/06 10:52:58;;;;;;;1.17;0.70;;;37.60;42.40;;;;;;5094004;28;20095;-74
2022/08/06 10:55:24;;;;;;;1.75;0.70;;;36.80;43.00;;;;;;5093116;28;20027;-74
2022/08/06 10:57:50;;;;;;;2.28;0.90;;;36.60;43.30;;;;;;5092872;28;20389;-74
2022/08/06 11:00:15;;;;;;;1.45;0.60;;;36.20;43.30;;;;;;5095676;28;20133;-74
2022/08/06 11:03:16;;;;;;;2.17;0.82;;;36.00;43.70;;;;;;5100272;28;20024;-74
2022/08/06 11:05:46;;;;;;;0.90;0.60;;;37.30;42.80;;;;;;5098529;28;20028;-74
2022/08/06 11:08:23;;;;;;;2.92;1.08;;;38.10;42.50;;;;;;5099728;28;20070;-74
2022/08/06 11:11:16;;;;;;;1.20;0.65;;;38.60;42.20;;;;;;5099087;28;20028;-72
2022/08/06 11:13:57;;;;;;;0.80;0.70;;;38.80;41.50;;;;;;5099152;28;20024;-72
2022/08/06 11:16:25;;;;;;;1.52;0.52;;;37.10;42.30;;;;;;5101954;28;20400;-71
2022/08/06 11:18:57;;;;;;;2.83;0.75;;;34.40;44.10;;;;;;5099017;28;20020;-72
2022/08/06 11:21:44;;;;;;;1.92;1.00;;;32.50;45.90;;;;;;5099986;28;20370;-72
2022/08/06 11:24:11;;;;;;;;;;;31.10;47.00;;;;;;5099345;28;20085;-72
2022/08/06 11:26:39;;;;;;;2.28;0.90;;;29.80;48.30;;;;;;5099157;28;19975;-72
2022/08/06 11:29:13;;;;;;;1.17;0.65;;;29.40;48.90;;;;;;5098236;28;20052;-72
2022/08/06 11:31:48;;;;;;;2.17;0.80;;;28.70;49.80;;;;;;5099227;28;20103;-72
2022/08/06 11:34:16;;;;;;;1.63;0.75;;;28.30;50.50;;;;;;5097446;28;20024;-71
2022/08/06 11:36:51;;;;;;;1.33;0.60;;;28.30;50.70;;;;;;5096878;28;20020;-72
2022/08/06 11:39:20;;;;;;;1.95;0.70;;;28.00;50.60;;;;;;5095274;28;20031;-72
2022/08/06 11:41:47;;;;;;;3.10;1.40;;;27.50;51.20;;;;;;5096355;28;20020;-72
2022/08/06 11:44:17;;;;;;;1.70;0.75;;;27.60;51.40;;;;;;5096606;28;20372;-72
2022/08/06 11:46:45;;;;;;;28.48;13.50;;;27.70;51.00;;;;;;5096513;28;20012;-74
2022/08/06 11:49:20;;;;;;;11.27;5.68;;;27.70;53.00;;;;;;5096713;28;20407;-74
2022/08/06 11:51:47;;;;;;;6.50;3.35;;;27.60;51.70;;;;;;5096370;28;20365;-75
2022/08/06 11:54:32;;;;;;;12.15;7.18;;;27.50;51.50;;;;;;5094779;28;20024;-74
2022/08/06 11:57:01;;;;;;;2.65;1.00;;;27.50;53.30;;;;;;5094819;28;20047;-75
2022/08/06 11:59:28;;;;;;;1.42;0.82;;;27.60;51.70;;;;;;5096776;28;20024;-74
2022/08/06 12:01:55;;;;;;;1.45;0.77;;;27.30;52.00;;;;;;5099139;28;20031;-73
2022/08/06 12:04:36;;;;;;;2.88;0.80;;;26.90;52.90;;;;;;5096027;28;20031;-75
2022/08/06 12:07:22;;;;;;;2.17;1.10;;;26.90;52.40;;;;;;5095878;28;20020;-74
2022/08/06 12:10:06;;;;;;;3.08;0.73;;;27.10;52.60;;;;;;5099704;28;20388;-74
2022/08/06 12:12:34;;;;;;;3.30;0.80;;;27.30;52.10;;;;;;5095780;28;20031;-74
2022/08/06 12:15:13;;;;;;;2.75;0.85;;;27.20;52.00;;;;;;5094630;28;20025;-74
2022/08/06 12:17:41;;;;;;;1.90;0.60;;;26.90;51.80;;;;;;5094815;28;20031;-74
2022/08/06 12:20:08;;;;;;;1.42;0.55;;;26.80;51.10;;;;;;5095898;28;20024;-73
2022/08/06 12:22:35;;;;;;;2.35;0.75;;;26.70;52.10;;;;;;5095036;28;20028;-74
2022/08/06 12:25:06;;;;;;;1.90;0.80;;;26.70;52.60;;;;;;5093769;28;20100;-71
2022/08/06 12:27:34;;;;;;;3.40;0.90;;;27.00;51.70;;;;;;5094479;28;20024;-72
2022/08/06 12:30:01;;;;;;;2.28;0.90;;;27.00;51.80;;;;;;5077372;28;20032;-71
2022/08/06 12:32:26;;;;;;;1.95;0.60;;;26.70;52.20;;;;;;5095719;28;20020;-74
2022/08/06 12:34:54;;;;;;;;;;;26.50;52.30;;;;;;5095890;28;20464;-73
2022/08/06 12:37:19;;;;;;;3.42;0.60;;;26.40;52.40;;;;;;5095333;28;19950;-71
2022/08/06 12:42:30;;;;;;;1.45;0.60;;;26.90;52.30;;;;;;5095555;28;20303;-72
2022/08/06 12:44:56;;;;;;;2.35;0.70;;;27.00;51.90;;;;;;5095608;28;20035;-72
2022/08/06 12:47:22;;;;;;;;;;;27.10;51.80;;;;;;5095618;28;20024;-72
2022/08/06 12:49:48;;;;;;;2.97;0.65;;;27.20;51.50;;;;;;5094020;28;19912;-72
2022/08/06 12:52:20;;;;;;;2.78;0.63;;;27.10;51.70;;;;;;5095122;28;20035;-72
2022/08/06 12:54:46;;;;;;;0.82;0.60;;;27.20;51.70;;;;;;5093776;28;20028;-71
2022/08/06 12:57:27;;;;;;;1.38;0.70;;;27.20;51.40;;;;;;5094729;28;20028;-73
2022/08/06 12:59:54;;;;;;;2.60;0.75;;;27.10;51.70;;;;;;5117491;22;20040;-68
2022/08/06 13:02:23;;;;;;;2.55;0.60;;;27.20;51.70;;;;;;5094791;28;20028;-67
2022/08/06 13:04:52;;;;;;;2.85;0.63;;;27.30;51.80;;;;;;5096000;28;20020;-67
2022/08/06 13:07:19;;;;;;;1.27;0.70;;;27.40;51.30;;;;;;5095355;28;20137;-67
2022/08/06 13:09:46;;;;;;;1.60;0.50;;;27.50;51.20;;;;;;5094043;28;20404;-67
2022/08/06 13:12:17;;;;;;;1.77;0.55;;;27.70;51.30;;;;;;5095296;28;20049;-67
2022/08/06 13:14:57;;;;;;;3.65;0.60;;;27.60;51.00;;;;;;5095951;28;20023;-66